createdAt,value
2022-10-29T00:02:27.881Z,15.60
2022-10-29T00:07:30.141Z,15.70
2022-10-29T00:12:32.600Z,15.70
2022-10-29T00:17:35.054Z,15.70
2022-10-29T00:22:37.298Z,15.80
2022-10-29T00:27:39.499Z,15.80
2022-10-29T00:32:41.720Z,15.80
2022-10-29T00:37:43.851Z,15.80
2022-10-29T00:42:46.008Z,15.90
2022-10-29T00:47:52.272Z,15.90
2022-10-29T00:52:55.146Z,16.00
2022-10-29T00:57:58.250Z,16.10
2022-10-29T01:03:00.878Z,16.20
2022-10-29T01:08:04.236Z,16.30
2022-10-29T01:13:29.267Z,16.20
2022-10-29T01:18:40.395Z,16.20
2022-10-29T01:24:06.417Z,16.30
2022-10-29T01:29:33.284Z,16.40
2022-10-29T01:35:04.786Z,16.40
2022-10-29T01:40:34.377Z,16.40
2022-10-29T01:45:45.475Z,16.40
2022-10-29T01:50:52.675Z,16.40
2022-10-29T01:55:54.886Z,16.30
2022-10-29T02:01:18.740Z,16.20
2022-10-29T02:06:39.814Z,16.10
2022-10-29T02:12:22.209Z,16.00
2022-10-29T02:17:25.116Z,16.00
2022-10-29T02:22:27.519Z,15.90
2022-10-29T02:27:29.761Z,15.90
2022-10-29T02:32:33.062Z,15.90
2022-10-29T02:37:35.741Z,16.00
2022-10-29T02:42:38.105Z,16.00
2022-10-29T02:47:40.294Z,16.10
2022-10-29T02:52:42.487Z,15.90
2022-10-29T02:57:45.442Z,15.90
2022-10-29T03:02:52.635Z,15.90
2022-10-29T03:07:54.921Z,16.00
2022-10-29T03:12:59.564Z,16.10
2022-10-29T03:18:01.856Z,16.20
2022-10-29T03:23:04.121Z,16.30
2022-10-29T03:28:06.572Z,16.30
2022-10-29T03:33:08.778Z,16.30
2022-10-29T03:38:11.149Z,16.30
2022-10-29T03:43:13.398Z,16.30
2022-10-29T03:48:15.622Z,16.40
2022-10-29T03:53:17.834Z,16.40
2022-10-29T03:58:20.571Z,16.40
2022-10-29T04:03:23.024Z,16.50
2022-10-29T04:08:26.148Z,16.60
2022-10-29T04:13:28.616Z,16.70
2022-10-29T04:18:30.932Z,16.60
2022-10-29T04:28:57.379Z,16.50
2022-10-29T04:33:59.554Z,16.60
2022-10-29T04:39:01.971Z,16.50
2022-10-29T04:44:04.257Z,16.40
2022-10-29T04:49:06.525Z,16.50
2022-10-29T04:54:08.843Z,16.60
2022-10-29T04:59:11.108Z,16.60
2022-10-29T05:04:13.385Z,16.40
2022-10-29T05:09:15.624Z,16.50
2022-10-29T05:14:17.808Z,16.40
2022-10-29T05:19:20.064Z,16.30
2022-10-29T05:24:22.322Z,16.30
2022-10-29T05:29:24.517Z,16.40
2022-10-29T05:34:26.760Z,16.50
2022-10-29T05:39:28.938Z,16.50
2022-10-29T05:44:31.205Z,16.50
2022-10-29T05:49:33.609Z,16.50
2022-10-29T05:54:35.770Z,16.50
2022-10-29T05:59:38.684Z,16.40
2022-10-29T06:04:40.866Z,16.40
2022-10-29T06:09:43.132Z,16.30
2022-10-29T06:14:45.337Z,16.20
2022-10-29T06:19:47.584Z,16.20
2022-10-29T06:24:49.805Z,16.20
2022-10-29T06:29:52.138Z,16.20
2022-10-29T06:34:54.337Z,16.20
2022-10-29T06:39:56.559Z,16.30
2022-10-29T06:44:58.872Z,16.30
2022-10-29T06:50:01.174Z,16.40
2022-10-29T06:55:04.869Z,16.50
2022-10-29T07:00:08.795Z,16.50
2022-10-29T07:05:11.107Z,16.40
2022-10-29T07:10:13.619Z,16.30
2022-10-29T07:15:15.879Z,16.30
2022-10-29T07:20:18.151Z,16.30
2022-10-29T07:25:20.507Z,16.30
2022-10-29T07:30:23.033Z,16.40
2022-10-29T07:35:25.189Z,16.50
2022-10-29T07:40:27.381Z,16.50
2022-10-29T07:45:29.624Z,16.50
2022-10-29T07:50:32.447Z,16.50
2022-10-29T07:55:34.988Z,16.40
2022-10-29T08:00:39.359Z,16.50
2022-10-29T08:05:43.017Z,16.60
2022-10-29T08:10:45.652Z,16.70
2022-10-29T08:15:47.941Z,16.80
2022-10-29T08:20:50.153Z,16.90
2022-10-29T08:25:52.300Z,17.10
2022-10-29T08:30:54.526Z,17.30
2022-10-29T08:35:56.994Z,17.50
2022-10-29T08:41:27.584Z,17.60
2022-10-29T08:46:50.552Z,17.80
2022-10-29T08:51:59.631Z,17.90
2022-10-29T08:57:19.783Z,18.00
2022-10-29T09:02:22.050Z,18.10
2022-10-29T09:08:05.453Z,18.10
2022-10-29T09:13:36.997Z,18.20
2022-10-29T09:18:50.792Z,18.30
2022-10-29T09:23:59.145Z,18.30
2022-10-29T09:29:23.183Z,18.40
2022-10-29T09:34:40.785Z,18.50
2022-10-29T09:39:55.718Z,18.60
2022-10-29T09:45:03.294Z,18.60
2022-10-29T09:50:47.568Z,18.70
2022-10-29T09:55:59.319Z,18.70
2022-10-29T10:01:07.708Z,18.90
2022-10-29T10:06:14.589Z,19.10
2022-10-29T10:11:20.935Z,19.20
2022-10-29T10:16:29.791Z,19.20
2022-10-29T10:21:34.734Z,19.20
2022-10-29T10:26:43.642Z,19.20
2022-10-29T10:32:17.252Z,19.30
2022-10-29T10:37:20.932Z,19.40
2022-10-29T10:42:28.184Z,19.40
2022-10-29T10:47:37.379Z,19.50
2022-10-29T10:52:46.400Z,19.50
2022-10-29T10:58:09.289Z,19.50
2022-10-29T11:08:56.032Z,19.60
2022-10-29T11:14:11.279Z,19.70
2022-10-29T11:19:35.880Z,19.60
2022-10-29T11:25:21.919Z,19.60
2022-10-29T11:30:24.958Z,19.40
2022-10-29T11:35:30.483Z,19.40
2022-10-29T11:41:30.254Z,19.30
2022-10-29T11:46:46.648Z,19.30
2022-10-29T11:52:04.619Z,19.50
2022-10-29T11:57:20.974Z,19.50
2022-10-29T12:02:59.359Z,19.70
2022-10-29T12:08:46.557Z,19.70
2022-10-29T12:14:18.371Z,19.60
2022-10-29T12:19:41.860Z,19.30
2022-10-29T12:25:10.451Z,19.00
2022-10-29T12:30:26.431Z,18.90
2022-10-29T12:35:58.775Z,18.70
2022-10-29T12:41:26.898Z,18.60
2022-10-29T12:46:56.504Z,18.60
2022-10-29T12:52:24.335Z,18.50
2022-10-29T12:57:35.167Z,18.60
2022-10-29T13:02:39.766Z,18.50
2022-10-29T13:07:48.009Z,18.50
2022-10-29T13:13:19.246Z,18.50
2022-10-29T13:18:53.828Z,18.40
2022-10-29T13:24:07.357Z,18.20
2022-10-29T13:29:14.950Z,18.00
2022-10-29T13:34:55.192Z,17.90
2022-10-29T13:40:33.307Z,17.80
2022-10-29T13:45:40.125Z,17.70
2022-10-29T13:50:43.280Z,17.70
2022-10-29T13:55:49.199Z,17.60
2022-10-29T14:00:53.564Z,17.60
2022-10-29T14:06:45.711Z,17.60
2022-10-29T14:12:19.014Z,17.60
2022-10-29T14:17:22.882Z,17.60
2022-10-29T14:22:40.861Z,17.60
2022-10-29T14:27:44.193Z,17.70
2022-10-29T14:33:33.735Z,17.70
2022-10-29T14:38:53.955Z,17.70
2022-10-29T14:44:39.673Z,17.60
2022-10-29T14:49:49.761Z,17.60
2022-10-29T14:54:54.271Z,17.50
2022-10-29T15:00:02.772Z,17.60
2022-10-29T15:05:37.365Z,17.70
2022-10-29T15:10:50.984Z,18.00
2022-10-29T15:16:22.060Z,18.00
2022-10-29T15:21:40.786Z,17.80
2022-10-29T15:26:57.936Z,17.60
2022-10-29T15:32:17.703Z,17.50
2022-10-29T15:37:24.455Z,17.30
2022-10-29T15:42:33.712Z,17.10
2022-10-29T15:47:38.612Z,17.00
2022-10-29T15:52:44.408Z,16.90
2022-10-29T15:57:53.431Z,16.90
2022-10-29T16:03:16.891Z,16.80
2022-10-29T16:08:57.793Z,16.70
2022-10-29T16:14:04.147Z,16.60
2022-10-29T16:19:09.350Z,16.50
2022-10-29T16:24:37.124Z,16.50
2022-10-29T16:30:07.936Z,16.40
2022-10-29T16:35:49.448Z,16.30
2022-10-29T16:41:17.690Z,16.30
2022-10-29T16:46:23.848Z,16.20
2022-10-29T16:51:46.756Z,16.10
2022-10-29T16:56:57.998Z,16.10
2022-10-29T17:02:03.044Z,16.10
2022-10-29T17:07:06.802Z,15.90
2022-10-29T17:12:10.426Z,15.90
2022-10-29T17:17:13.601Z,15.90
2022-10-29T17:22:18.740Z,15.90
2022-10-29T17:27:21.455Z,15.80
2022-10-29T17:32:33.390Z,15.70
2022-10-29T17:37:35.740Z,15.60
2022-10-29T17:42:38.379Z,15.60
2022-10-29T17:52:44.309Z,15.60
2022-10-29T17:57:46.750Z,15.60
2022-10-29T18:07:59.913Z,15.50
2022-10-29T18:13:02.395Z,15.50
2022-10-29T18:18:05.749Z,15.50
2022-10-29T18:23:07.919Z,15.60
2022-10-29T18:28:10.020Z,15.50
2022-10-29T18:38:19.172Z,15.30
2022-10-29T18:43:21.697Z,15.20
2022-10-29T18:48:24.454Z,15.20
2022-10-29T18:53:26.685Z,15.10
2022-10-29T18:58:28.859Z,15.10
2022-10-29T19:03:31.002Z,15.10
2022-10-29T19:08:35.440Z,15.00
2022-10-29T19:13:37.819Z,15.00
2022-10-29T19:18:41.279Z,15.00
2022-10-29T19:23:46.278Z,15.00
2022-10-29T19:28:48.465Z,15.00
2022-10-29T19:33:51.903Z,15.00
2022-10-29T19:38:54.768Z,15.10
2022-10-29T19:44:01.364Z,15.20
2022-10-29T19:49:03.694Z,15.30
2022-10-29T19:54:07.325Z,15.30
2022-10-29T19:59:09.617Z,15.40
2022-10-29T20:04:11.785Z,15.50
2022-10-29T20:09:14.330Z,15.50
2022-10-29T20:14:16.502Z,15.50
2022-10-29T20:19:18.676Z,15.50
2022-10-29T20:24:21.064Z,15.50
2022-10-29T20:29:23.189Z,15.50
2022-10-29T20:34:25.344Z,15.50
2022-10-29T20:39:32.340Z,15.50
2022-10-29T20:44:35.689Z,15.40
2022-10-29T20:49:38.117Z,15.30
2022-10-29T20:54:40.256Z,15.20
2022-10-29T20:59:42.570Z,15.20
2022-10-29T21:04:44.724Z,15.10
2022-10-29T21:09:47.832Z,15.00
2022-10-29T21:14:50.047Z,15.00
2022-10-29T21:19:52.221Z,14.90
2022-10-29T21:24:54.349Z,14.80
2022-10-29T21:29:56.517Z,14.70
2022-10-29T21:34:58.711Z,14.70
2022-10-29T21:40:05.003Z,14.60
2022-10-29T21:45:08.907Z,14.50
2022-10-29T21:50:11.466Z,14.50
2022-10-29T21:55:13.768Z,14.50
2022-10-29T22:00:17.328Z,14.40
2022-10-29T22:05:19.614Z,14.40
2022-10-29T22:10:21.965Z,14.30
2022-10-29T22:15:24.027Z,14.30
2022-10-29T22:20:26.128Z,14.30
2022-10-29T22:25:28.169Z,14.30
2022-10-29T22:30:30.287Z,14.30
2022-10-29T22:35:32.864Z,14.20
2022-10-29T22:40:40.990Z,14.10
2022-10-29T22:45:46.260Z,14.10
2022-10-29T22:50:48.400Z,14.00
2022-10-29T22:55:54.143Z,14.00
2022-10-29T23:01:06.880Z,14.00
2022-10-29T23:06:11.583Z,14.00
2022-10-29T23:11:19.398Z,13.90
2022-10-29T23:16:23.301Z,13.90
2022-10-29T23:21:25.876Z,14.00
2022-10-29T23:26:29.162Z,14.00
2022-10-29T23:31:33.515Z,14.00
2022-10-29T23:36:35.757Z,14.00
2022-10-29T23:41:38.197Z,14.00
2022-10-29T23:46:40.369Z,14.00
2022-10-29T23:51:42.535Z,14.00
2022-10-29T23:56:44.746Z,14.00
